sensor_id;sensor_type;location;lat;lon;timestamp;temperature;humidity
82231;DHT22;71832;45.138;9.816;2024-01-30T00:01:07;2.50;99.90
82231;DHT22;71832;45.138;9.816;2024-01-30T00:03:35;2.50;99.90
82231;DHT22;71832;45.138;9.816;2024-01-30T00:06:04;2.50;99.90
82231;DHT22;71832;45.138;9.816;2024-01-30T00:08:32;2.50;99.90
82231;DHT22;71832;45.138;9.816;2024-01-30T00:11:01;2.50;99.90
82231;DHT22;71832;45.138;9.816;2024-01-30T00:13:30;2.50;99.90
82231;DHT22;71832;45.138;9.816;2024-01-30T00:15:58;2.50;99.90
82231;DHT22;71832;45.138;9.816;2024-01-30T00:18:26;2.50;99.90
82231;DHT22;71832;45.138;9.816;2024-01-30T00:20:55;2.40;99.90
82231;DHT22;71832;45.138;9.816;2024-01-30T00:23:23;2.40;99.90
82231;DHT22;71832;45.138;9.816;2024-01-30T00:25:52;2.40;99.90
82231;DHT22;71832;45.138;9.816;2024-01-30T00:28:21;2.40;99.90
82231;DHT22;71832;45.138;9.816;2024-01-30T00:30:50;2.40;99.90
82231;DHT22;71832;45.138;9.816;2024-01-30T00:33:18;2.40;99.90
82231;DHT22;71832;45.138;9.816;2024-01-30T00:35:47;2.40;99.90
82231;DHT22;71832;45.138;9.816;2024-01-30T00:38:15;2.40;99.90
82231;DHT22;71832;45.138;9.816;2024-01-30T00:40:44;2.40;99.90
82231;DHT22;71832;45.138;9.816;2024-01-30T00:43:13;2.40;99.90
82231;DHT22;71832;45.138;9.816;2024-01-30T00:45:43;2.30;99.90
82231;DHT22;71832;45.138;9.816;2024-01-30T00:48:11;2.30;99.90
82231;DHT22;71832;45.138;9.816;2024-01-30T00:50:40;2.30;99.90
82231;DHT22;71832;45.138;9.816;2024-01-30T00:53:09;2.20;99.90
82231;DHT22;71832;45.138;9.816;2024-01-30T00:55:37;2.20;99.90
82231;DHT22;71832;45.138;9.816;2024-01-30T00:58:06;2.20;99.90
82231;DHT22;71832;45.138;9.816;2024-01-30T01:00:34;2.20;99.90
82231;DHT22;71832;45.138;9.816;2024-01-30T01:03:02;2.20;99.90
82231;DHT22;71832;45.138;9.816;2024-01-30T01:05:31;2.20;99.90
82231;DHT22;71832;45.138;9.816;2024-01-30T01:07:59;2.10;99.90
82231;DHT22;71832;45.138;9.816;2024-01-30T01:10:28;2.10;99.90
82231;DHT22;71832;45.138;9.816;2024-01-30T01:12:56;2.10;99.90
82231;DHT22;71832;45.138;9.816;2024-01-30T01:15:24;2.10;99.90
82231;DHT22;71832;45.138;9.816;2024-01-30T01:17:52;2.10;99.90
82231;DHT22;71832;45.138;9.816;2024-01-30T01:20:20;2.10;99.90
82231;DHT22;71832;45.138;9.816;2024-01-30T01:22:47;2.10;99.90
82231;DHT22;71832;45.138;9.816;2024-01-30T01:25:16;2.10;99.90
82231;DHT22;71832;45.138;9.816;2024-01-30T01:27:45;2.10;99.90
82231;DHT22;71832;45.138;9.816;2024-01-30T01:30:18;2.10;99.90
82231;DHT22;71832;45.138;9.816;2024-01-30T01:32:49;2.10;99.90
82231;DHT22;71832;45.138;9.816;2024-01-30T01:35:23;2.00;99.90
82231;DHT22;71832;45.138;9.816;2024-01-30T01:37:52;2.00;99.90
82231;DHT22;71832;45.138;9.816;2024-01-30T01:40:26;1.90;99.90
82231;DHT22;71832;45.138;9.816;2024-01-30T01:42:55;1.90;99.90
82231;DHT22;71832;45.138;9.816;2024-01-30T01:45:24;1.90;99.90
82231;DHT22;71832;45.138;9.816;2024-01-30T01:47:53;1.90;99.90
82231;DHT22;71832;45.138;9.816;2024-01-30T01:50:22;1.90;99.90
82231;DHT22;71832;45.138;9.816;2024-01-30T01:52:51;1.80;99.90
82231;DHT22;71832;45.138;9.816;2024-01-30T01:55:21;1.80;99.90
82231;DHT22;71832;45.138;9.816;2024-01-30T01:57:51;1.80;99.90
82231;DHT22;71832;45.138;9.816;2024-01-30T02:00:21;1.80;99.90
82231;DHT22;71832;45.138;9.816;2024-01-30T02:02:50;1.80;99.90
82231;DHT22;71832;45.138;9.816;2024-01-30T02:05:21;1.70;99.90
82231;DHT22;71832;45.138;9.816;2024-01-30T02:07:51;1.70;99.90
82231;DHT22;71832;45.138;9.816;2024-01-30T02:10:20;1.70;99.90
82231;DHT22;71832;45.138;9.816;2024-01-30T02:12:49;1.60;99.90
82231;DHT22;71832;45.138;9.816;2024-01-30T02:15:18;1.60;99.90
82231;DHT22;71832;45.138;9.816;2024-01-30T02:17:46;1.60;99.90
82231;DHT22;71832;45.138;9.816;2024-01-30T02:20:15;1.60;99.90
82231;DHT22;71832;45.138;9.816;2024-01-30T02:22:43;1.60;99.90
82231;DHT22;71832;45.138;9.816;2024-01-30T02:25:11;1.60;99.90
82231;DHT22;71832;45.138;9.816;2024-01-30T02:27:39;1.50;99.90
82231;DHT22;71832;45.138;9.816;2024-01-30T02:30:07;1.60;99.90
82231;DHT22;71832;45.138;9.816;2024-01-30T02:32:36;1.60;99.90
82231;DHT22;71832;45.138;9.816;2024-01-30T02:35:04;1.60;99.90
82231;DHT22;71832;45.138;9.816;2024-01-30T02:37:33;1.60;99.90
82231;DHT22;71832;45.138;9.816;2024-01-30T02:40:01;1.60;99.90
82231;DHT22;71832;45.138;9.816;2024-01-30T02:42:30;1.60;99.90
82231;DHT22;71832;45.138;9.816;2024-01-30T02:44:59;1.60;99.90
82231;DHT22;71832;45.138;9.816;2024-01-30T02:47:27;1.50;99.90
82231;DHT22;71832;45.138;9.816;2024-01-30T02:49:56;1.50;99.90
82231;DHT22;71832;45.138;9.816;2024-01-30T02:52:25;1.50;99.90
82231;DHT22;71832;45.138;9.816;2024-01-30T02:54:52;1.50;99.90
82231;DHT22;71832;45.138;9.816;2024-01-30T02:57:21;1.50;99.90
82231;DHT22;71832;45.138;9.816;2024-01-30T02:59:49;1.50;99.90
82231;DHT22;71832;45.138;9.816;2024-01-30T03:02:18;1.60;99.90
82231;DHT22;71832;45.138;9.816;2024-01-30T03:04:47;1.60;99.90
82231;DHT22;71832;45.138;9.816;2024-01-30T03:07:15;1.60;99.90
82231;DHT22;71832;45.138;9.816;2024-01-30T03:09:43;1.60;99.90
82231;DHT22;71832;45.138;9.816;2024-01-30T03:12:11;1.60;99.90
82231;DHT22;71832;45.138;9.816;2024-01-30T03:14:39;1.60;99.90
82231;DHT22;71832;45.138;9.816;2024-01-30T03:17:07;1.50;99.90
82231;DHT22;71832;45.138;9.816;2024-01-30T03:19:37;1.50;99.90
82231;DHT22;71832;45.138;9.816;2024-01-30T03:22:05;1.50;99.90
82231;DHT22;71832;45.138;9.816;2024-01-30T03:24:34;1.50;99.90
82231;DHT22;71832;45.138;9.816;2024-01-30T03:27:02;1.50;99.90
82231;DHT22;71832;45.138;9.816;2024-01-30T03:29:31;1.50;99.90
82231;DHT22;71832;45.138;9.816;2024-01-30T03:32:00;1.50;99.90
82231;DHT22;71832;45.138;9.816;2024-01-30T03:34:29;1.60;99.90
82231;DHT22;71832;45.138;9.816;2024-01-30T03:36:57;1.60;99.90
82231;DHT22;71832;45.138;9.816;2024-01-30T03:39:25;1.60;99.90
82231;DHT22;71832;45.138;9.816;2024-01-30T03:41:53;1.60;99.90
82231;DHT22;71832;45.138;9.816;2024-01-30T03:44:22;1.50;99.90
82231;DHT22;71832;45.138;9.816;2024-01-30T03:46:51;1.50;99.90
82231;DHT22;71832;45.138;9.816;2024-01-30T03:49:20;1.40;99.90
82231;DHT22;71832;45.138;9.816;2024-01-30T03:51:48;1.40;99.90
82231;DHT22;71832;45.138;9.816;2024-01-30T03:54:16;1.50;99.90
82231;DHT22;71832;45.138;9.816;2024-01-30T03:56:45;1.50;99.90
82231;DHT22;71832;45.138;9.816;2024-01-30T03:59:13;1.50;99.90
82231;DHT22;71832;45.138;9.816;2024-01-30T04:01:42;1.50;99.90
82231;DHT22;71832;45.138;9.816;2024-01-30T04:04:11;1.40;99.90
82231;DHT22;71832;45.138;9.816;2024-01-30T04:06:39;1.40;99.90
82231;DHT22;71832;45.138;9.816;2024-01-30T04:09:07;1.50;99.90
82231;DHT22;71832;45.138;9.816;2024-01-30T04:11:35;1.50;99.90
82231;DHT22;71832;45.138;9.816;2024-01-30T04:14:03;1.40;99.90
82231;DHT22;71832;45.138;9.816;2024-01-30T04:16:30;1.50;99.90
82231;DHT22;71832;45.138;9.816;2024-01-30T04:18:58;1.50;99.90
82231;DHT22;71832;45.138;9.816;2024-01-30T04:21:26;1.50;99.90
82231;DHT22;71832;45.138;9.816;2024-01-30T04:23:55;1.50;99.90
82231;DHT22;71832;45.138;9.816;2024-01-30T04:26:23;1.50;99.90
82231;DHT22;71832;45.138;9.816;2024-01-30T04:28:51;1.50;99.90
82231;DHT22;71832;45.138;9.816;2024-01-30T04:31:20;1.40;99.90
82231;DHT22;71832;45.138;9.816;2024-01-30T04:33:48;1.40;99.90
82231;DHT22;71832;45.138;9.816;2024-01-30T04:36:17;1.50;99.90
82231;DHT22;71832;45.138;9.816;2024-01-30T04:38:45;1.50;99.90
82231;DHT22;71832;45.138;9.816;2024-01-30T04:41:14;1.50;99.90
82231;DHT22;71832;45.138;9.816;2024-01-30T04:43:42;1.50;99.90
82231;DHT22;71832;45.138;9.816;2024-01-30T04:46:11;1.50;99.90
82231;DHT22;71832;45.138;9.816;2024-01-30T04:48:40;1.50;99.90
82231;DHT22;71832;45.138;9.816;2024-01-30T04:51:08;1.50;99.90
82231;DHT22;71832;45.138;9.816;2024-01-30T04:53:37;1.50;99.90
82231;DHT22;71832;45.138;9.816;2024-01-30T04:56:07;1.50;99.90
82231;DHT22;71832;45.138;9.816;2024-01-30T04:58:35;1.50;99.90
82231;DHT22;71832;45.138;9.816;2024-01-30T05:01:03;1.60;99.90
82231;DHT22;71832;45.138;9.816;2024-01-30T05:03:40;1.50;99.60
82231;DHT22;71832;45.138;9.816;2024-01-30T05:06:07;1.50;99.50
82231;DHT22;71832;45.138;9.816;2024-01-30T05:08:35;1.50;99.60
82231;DHT22;71832;45.138;9.816;2024-01-30T05:11:05;1.50;99.30
82231;DHT22;71832;45.138;9.816;2024-01-30T05:13:34;1.40;99.30
82231;DHT22;71832;45.138;9.816;2024-01-30T05:16:03;1.40;99.60
82231;DHT22;71832;45.138;9.816;2024-01-30T05:18:31;1.40;99.90
82231;DHT22;71832;45.138;9.816;2024-01-30T05:21:01;1.40;99.90
82231;DHT22;71832;45.138;9.816;2024-01-30T05:23:30;1.30;99.60
82231;DHT22;71832;45.138;9.816;2024-01-30T05:25:59;1.40;99.60
82231;DHT22;71832;45.138;9.816;2024-01-30T05:28:29;1.30;99.20
82231;DHT22;71832;45.138;9.816;2024-01-30T05:30:57;1.30;99.30
82231;DHT22;71832;45.138;9.816;2024-01-30T05:33:24;1.20;99.60
82231;DHT22;71832;45.138;9.816;2024-01-30T05:35:52;1.20;99.90
82231;DHT22;71832;45.138;9.816;2024-01-30T05:38:21;1.20;99.90
82231;DHT22;71832;45.138;9.816;2024-01-30T05:40:48;1.20;99.90
82231;DHT22;71832;45.138;9.816;2024-01-30T05:43:17;1.20;99.60
82231;DHT22;71832;45.138;9.816;2024-01-30T05:45:45;1.20;99.70
82231;DHT22;71832;45.138;9.816;2024-01-30T05:48:14;1.10;99.70
82231;DHT22;71832;45.138;9.816;2024-01-30T05:50:42;1.10;99.90
82231;DHT22;71832;45.138;9.816;2024-01-30T05:53:10;1.10;99.90
82231;DHT22;71832;45.138;9.816;2024-01-30T05:55:39;1.10;99.90
82231;DHT22;71832;45.138;9.816;2024-01-30T05:58:08;1.10;99.90
82231;DHT22;71832;45.138;9.816;2024-01-30T06:00:37;1.10;99.90
82231;DHT22;71832;45.138;9.816;2024-01-30T06:03:05;1.10;99.90
82231;DHT22;71832;45.138;9.816;2024-01-30T06:05:34;1.10;99.90
82231;DHT22;71832;45.138;9.816;2024-01-30T06:08:03;1.10;99.90
82231;DHT22;71832;45.138;9.816;2024-01-30T06:10:30;1.10;99.90
82231;DHT22;71832;45.138;9.816;2024-01-30T06:12:58;1.10;99.90
82231;DHT22;71832;45.138;9.816;2024-01-30T06:15:27;1.10;99.90
82231;DHT22;71832;45.138;9.816;2024-01-30T06:17:57;1.10;99.90
82231;DHT22;71832;45.138;9.816;2024-01-30T06:20:26;1.10;99.90
82231;DHT22;71832;45.138;9.816;2024-01-30T06:22:54;1.10;99.90
82231;DHT22;71832;45.138;9.816;2024-01-30T06:25:22;1.10;99.90
82231;DHT22;71832;45.138;9.816;2024-01-30T06:27:50;1.10;99.90
82231;DHT22;71832;45.138;9.816;2024-01-30T06:30:18;1.10;99.90
82231;DHT22;71832;45.138;9.816;2024-01-30T06:32:46;1.00;99.90
82231;DHT22;71832;45.138;9.816;2024-01-30T06:35:13;1.00;99.90
82231;DHT22;71832;45.138;9.816;2024-01-30T06:37:41;1.10;99.90
82231;DHT22;71832;45.138;9.816;2024-01-30T06:40:10;1.10;99.90
82231;DHT22;71832;45.138;9.816;2024-01-30T06:42:39;1.10;99.90
82231;DHT22;71832;45.138;9.816;2024-01-30T06:45:07;1.10;99.90
82231;DHT22;71832;45.138;9.816;2024-01-30T06:47:35;1.10;99.90
82231;DHT22;71832;45.138;9.816;2024-01-30T06:50:02;1.20;99.90
82231;DHT22;71832;45.138;9.816;2024-01-30T06:52:31;1.20;99.90
82231;DHT22;71832;45.138;9.816;2024-01-30T06:54:59;1.20;99.90
82231;DHT22;71832;45.138;9.816;2024-01-30T06:57:28;1.20;99.90
82231;DHT22;71832;45.138;9.816;2024-01-30T06:59:57;1.20;99.90
82231;DHT22;71832;45.138;9.816;2024-01-30T07:02:25;1.20;99.90
82231;DHT22;71832;45.138;9.816;2024-01-30T07:04:53;1.10;99.90
82231;DHT22;71832;45.138;9.816;2024-01-30T07:07:21;1.10;99.90
82231;DHT22;71832;45.138;9.816;2024-01-30T07:09:49;1.10;99.90
82231;DHT22;71832;45.138;9.816;2024-01-30T07:12:19;1.20;99.90
82231;DHT22;71832;45.138;9.816;2024-01-30T07:14:46;1.20;99.90
82231;DHT22;71832;45.138;9.816;2024-01-30T07:17:15;1.20;99.90
82231;DHT22;71832;45.138;9.816;2024-01-30T07:19:42;1.20;99.90
82231;DHT22;71832;45.138;9.816;2024-01-30T07:22:10;1.30;99.90
82231;DHT22;71832;45.138;9.816;2024-01-30T07:24:43;1.40;99.90
82231;DHT22;71832;45.138;9.816;2024-01-30T07:27:14;1.40;99.90
82231;DHT22;71832;45.138;9.816;2024-01-30T07:29:41;1.40;99.90
82231;DHT22;71832;45.138;9.816;2024-01-30T07:32:08;1.40;99.90
82231;DHT22;71832;45.138;9.816;2024-01-30T07:34:36;1.40;99.90
82231;DHT22;71832;45.138;9.816;2024-01-30T07:37:04;1.30;99.90
82231;DHT22;71832;45.138;9.816;2024-01-30T07:39:32;1.30;99.90
82231;DHT22;71832;45.138;9.816;2024-01-30T07:41:59;1.20;99.90
82231;DHT22;71832;45.138;9.816;2024-01-30T07:44:27;1.20;99.90
82231;DHT22;71832;45.138;9.816;2024-01-30T07:46:54;1.30;99.90
82231;DHT22;71832;45.138;9.816;2024-01-30T07:49:22;1.40;99.90
82231;DHT22;71832;45.138;9.816;2024-01-30T07:51:49;1.50;99.90
82231;DHT22;71832;45.138;9.816;2024-01-30T07:54:17;1.50;99.90
82231;DHT22;71832;45.138;9.816;2024-01-30T07:56:44;1.60;99.90
82231;DHT22;71832;45.138;9.816;2024-01-30T07:59:12;1.60;99.90
82231;DHT22;71832;45.138;9.816;2024-01-30T08:01:40;1.70;99.90
82231;DHT22;71832;45.138;9.816;2024-01-30T08:04:08;1.70;99.90
82231;DHT22;71832;45.138;9.816;2024-01-30T08:06:35;1.60;99.90
82231;DHT22;71832;45.138;9.816;2024-01-30T08:09:03;1.60;99.90
82231;DHT22;71832;45.138;9.816;2024-01-30T08:11:32;1.70;99.90
82231;DHT22;71832;45.138;9.816;2024-01-30T08:14:00;1.70;99.90
82231;DHT22;71832;45.138;9.816;2024-01-30T08:16:29;1.70;99.90
82231;DHT22;71832;45.138;9.816;2024-01-30T08:18:58;1.70;99.90
82231;DHT22;71832;45.138;9.816;2024-01-30T08:21:26;1.80;99.90
82231;DHT22;71832;45.138;9.816;2024-01-30T08:23:55;1.80;99.90
82231;DHT22;71832;45.138;9.816;2024-01-30T08:26:24;1.80;99.90
82231;DHT22;71832;45.138;9.816;2024-01-30T08:28:53;1.80;99.90
82231;DHT22;71832;45.138;9.816;2024-01-30T08:31:21;1.80;99.90
82231;DHT22;71832;45.138;9.816;2024-01-30T08:33:49;1.80;99.90
82231;DHT22;71832;45.138;9.816;2024-01-30T08:36:18;1.80;99.90
82231;DHT22;71832;45.138;9.816;2024-01-30T08:38:46;1.80;99.90
82231;DHT22;71832;45.138;9.816;2024-01-30T08:41:13;1.80;99.90
82231;DHT22;71832;45.138;9.816;2024-01-30T08:43:41;1.90;99.90
82231;DHT22;71832;45.138;9.816;2024-01-30T08:46:11;1.90;99.90
82231;DHT22;71832;45.138;9.816;2024-01-30T08:48:40;2.00;99.90
82231;DHT22;71832;45.138;9.816;2024-01-30T08:51:08;2.00;99.90
82231;DHT22;71832;45.138;9.816;2024-01-30T08:53:36;2.10;99.90
82231;DHT22;71832;45.138;9.816;2024-01-30T08:56:04;2.10;99.90
82231;DHT22;71832;45.138;9.816;2024-01-30T08:58:31;2.10;99.90
82231;DHT22;71832;45.138;9.816;2024-01-30T09:00:59;2.00;99.90
82231;DHT22;71832;45.138;9.816;2024-01-30T09:03:27;2.00;99.90
82231;DHT22;71832;45.138;9.816;2024-01-30T09:05:54;2.00;99.90
82231;DHT22;71832;45.138;9.816;2024-01-30T09:08:22;2.00;99.90
82231;DHT22;71832;45.138;9.816;2024-01-30T09:10:49;2.00;99.90
82231;DHT22;71832;45.138;9.816;2024-01-30T09:13:17;2.00;99.90
82231;DHT22;71832;45.138;9.816;2024-01-30T09:15:44;2.00;99.90
82231;DHT22;71832;45.138;9.816;2024-01-30T09:18:12;2.00;99.90
82231;DHT22;71832;45.138;9.816;2024-01-30T09:20:39;2.00;99.90
82231;DHT22;71832;45.138;9.816;2024-01-30T09:23:08;2.00;99.90
82231;DHT22;71832;45.138;9.816;2024-01-30T09:25:38;2.00;99.90
82231;DHT22;71832;45.138;9.816;2024-01-30T09:28:06;2.10;99.90
82231;DHT22;71832;45.138;9.816;2024-01-30T09:30:35;2.20;99.90
82231;DHT22;71832;45.138;9.816;2024-01-30T09:33:03;2.30;99.90
82231;DHT22;71832;45.138;9.816;2024-01-30T09:35:36;2.30;99.90
82231;DHT22;71832;45.138;9.816;2024-01-30T09:38:04;2.30;99.90
82231;DHT22;71832;45.138;9.816;2024-01-30T09:40:33;2.30;99.90
82231;DHT22;71832;45.138;9.816;2024-01-30T09:43:02;2.40;99.90
82231;DHT22;71832;45.138;9.816;2024-01-30T09:45:30;2.40;99.90
82231;DHT22;71832;45.138;9.816;2024-01-30T09:48:00;2.50;99.90
82231;DHT22;71832;45.138;9.816;2024-01-30T09:50:29;2.50;99.90
82231;DHT22;71832;45.138;9.816;2024-01-30T09:52:59;2.70;99.90
82231;DHT22;71832;45.138;9.816;2024-01-30T09:55:27;2.70;99.90
82231;DHT22;71832;45.138;9.816;2024-01-30T09:57:55;2.80;99.90
82231;DHT22;71832;45.138;9.816;2024-01-30T10:00:24;2.80;99.90
82231;DHT22;71832;45.138;9.816;2024-01-30T10:02:54;2.70;99.90
82231;DHT22;71832;45.138;9.816;2024-01-30T10:05:27;2.80;99.90
82231;DHT22;71832;45.138;9.816;2024-01-30T10:07:56;2.80;99.90
82231;DHT22;71832;45.138;9.816;2024-01-30T10:10:24;2.80;99.90
82231;DHT22;71832;45.138;9.816;2024-01-30T10:12:53;2.90;99.90
82231;DHT22;71832;45.138;9.816;2024-01-30T10:15:21;3.00;99.90
82231;DHT22;71832;45.138;9.816;2024-01-30T10:17:49;3.00;99.90
82231;DHT22;71832;45.138;9.816;2024-01-30T10:20:17;3.00;99.90
82231;DHT22;71832;45.138;9.816;2024-01-30T10:22:46;3.10;99.90
82231;DHT22;71832;45.138;9.816;2024-01-30T10:25:15;3.10;99.90
82231;DHT22;71832;45.138;9.816;2024-01-30T10:27:43;3.10;99.90
82231;DHT22;71832;45.138;9.816;2024-01-30T10:30:10;3.30;99.90
82231;DHT22;71832;45.138;9.816;2024-01-30T10:32:38;3.30;99.90
82231;DHT22;71832;45.138;9.816;2024-01-30T10:35:07;3.50;99.90
82231;DHT22;71832;45.138;9.816;2024-01-30T10:37:36;3.60;99.90
82231;DHT22;71832;45.138;9.816;2024-01-30T10:40:04;3.60;99.90
82231;DHT22;71832;45.138;9.816;2024-01-30T10:42:33;3.70;99.90
82231;DHT22;71832;45.138;9.816;2024-01-30T10:45:06;3.80;99.90
82231;DHT22;71832;45.138;9.816;2024-01-30T10:47:36;3.80;99.60
82231;DHT22;71832;45.138;9.816;2024-01-30T10:50:05;3.70;99.60
82231;DHT22;71832;45.138;9.816;2024-01-30T10:52:36;3.70;99.90
82231;DHT22;71832;45.138;9.816;2024-01-30T10:55:05;3.90;99.90
82231;DHT22;71832;45.138;9.816;2024-01-30T10:57:34;3.90;99.90
82231;DHT22;71832;45.138;9.816;2024-01-30T11:00:06;4.00;99.90
82231;DHT22;71832;45.138;9.816;2024-01-30T11:02:42;4.10;99.90
82231;DHT22;71832;45.138;9.816;2024-01-30T11:05:11;4.20;99.90
82231;DHT22;71832;45.138;9.816;2024-01-30T11:07:41;4.30;99.90
82231;DHT22;71832;45.138;9.816;2024-01-30T11:10:11;4.40;99.90
82231;DHT22;71832;45.138;9.816;2024-01-30T11:12:41;4.40;99.60
82231;DHT22;71832;45.138;9.816;2024-01-30T11:15:13;4.50;99.30
82231;DHT22;71832;45.138;9.816;2024-01-30T11:20:26;4.50;98.80
82231;DHT22;71832;45.138;9.816;2024-01-30T11:22:56;4.50;98.70
82231;DHT22;71832;45.138;9.816;2024-01-30T11:25:25;4.50;99.20
82231;DHT22;71832;45.138;9.816;2024-01-30T11:27:53;4.50;99.50
82231;DHT22;71832;45.138;9.816;2024-01-30T11:30:27;4.50;99.00
82231;DHT22;71832;45.138;9.816;2024-01-30T11:33:06;4.50;99.50
82231;DHT22;71832;45.138;9.816;2024-01-30T11:35:38;4.60;99.60
82231;DHT22;71832;45.138;9.816;2024-01-30T11:38:07;4.60;99.40
82231;DHT22;71832;45.138;9.816;2024-01-30T11:40:36;4.60;98.80
82231;DHT22;71832;45.138;9.816;2024-01-30T11:43:05;4.70;99.40
82231;DHT22;71832;45.138;9.816;2024-01-30T11:45:34;4.70;99.90
82231;DHT22;71832;45.138;9.816;2024-01-30T11:48:02;4.70;99.70
82231;DHT22;71832;45.138;9.816;2024-01-30T11:50:32;4.70;99.90
82231;DHT22;71832;45.138;9.816;2024-01-30T11:53:02;4.70;98.80
82231;DHT22;71832;45.138;9.816;2024-01-30T11:55:31;4.80;98.70
82231;DHT22;71832;45.138;9.816;2024-01-30T11:58:00;4.90;98.80
82231;DHT22;71832;45.138;9.816;2024-01-30T12:00:28;5.00;99.20
82231;DHT22;71832;45.138;9.816;2024-01-30T12:02:58;5.20;98.70
82231;DHT22;71832;45.138;9.816;2024-01-30T12:05:28;5.20;99.00
82231;DHT22;71832;45.138;9.816;2024-01-30T12:07:56;5.20;98.20
82231;DHT22;71832;45.138;9.816;2024-01-30T12:10:25;5.30;97.80
82231;DHT22;71832;45.138;9.816;2024-01-30T12:12:54;5.30;98.10
82231;DHT22;71832;45.138;9.816;2024-01-30T12:15:22;5.60;98.50
82231;DHT22;71832;45.138;9.816;2024-01-30T12:17:50;5.90;98.50
82231;DHT22;71832;45.138;9.816;2024-01-30T12:20:20;6.20;95.90
82231;DHT22;71832;45.138;9.816;2024-01-30T12:22:49;6.20;93.70
82231;DHT22;71832;45.138;9.816;2024-01-30T12:25:20;6.00;94.00
82231;DHT22;71832;45.138;9.816;2024-01-30T12:27:50;5.80;95.20
82231;DHT22;71832;45.138;9.816;2024-01-30T12:30:20;5.70;96.00
82231;DHT22;71832;45.138;9.816;2024-01-30T12:32:50;5.70;96.60
82231;DHT22;71832;45.138;9.816;2024-01-30T12:35:20;5.70;96.10
82231;DHT22;71832;45.138;9.816;2024-01-30T12:37:49;5.80;95.30
82231;DHT22;71832;45.138;9.816;2024-01-30T12:40:18;5.60;95.00
82231;DHT22;71832;45.138;9.816;2024-01-30T12:42:47;5.50;94.70
82231;DHT22;71832;45.138;9.816;2024-01-30T12:45:16;5.30;95.60
82231;DHT22;71832;45.138;9.816;2024-01-30T12:47:49;5.30;97.20
82231;DHT22;71832;45.138;9.816;2024-01-30T12:50:17;5.20;97.80
82231;DHT22;71832;45.138;9.816;2024-01-30T12:52:46;5.10;98.90
82231;DHT22;71832;45.138;9.816;2024-01-30T12:55:15;5.10;99.80
82231;DHT22;71832;45.138;9.816;2024-01-30T12:57:44;5.10;99.90
82231;DHT22;71832;45.138;9.816;2024-01-30T13:00:13;5.10;99.30
82231;DHT22;71832;45.138;9.816;2024-01-30T13:02:44;5.20;99.70
82231;DHT22;71832;45.138;9.816;2024-01-30T13:05:13;5.30;99.90
82231;DHT22;71832;45.138;9.816;2024-01-30T13:07:42;5.30;99.20
82231;DHT22;71832;45.138;9.816;2024-01-30T13:10:10;5.30;99.60
82231;DHT22;71832;45.138;9.816;2024-01-30T13:12:39;5.30;99.90
82231;DHT22;71832;45.138;9.816;2024-01-30T13:15:08;5.30;99.10
82231;DHT22;71832;45.138;9.816;2024-01-30T13:17:38;5.30;98.50
82231;DHT22;71832;45.138;9.816;2024-01-30T13:20:07;5.30;99.60
82231;DHT22;71832;45.138;9.816;2024-01-30T13:22:36;5.30;99.60
82231;DHT22;71832;45.138;9.816;2024-01-30T13:25:05;5.30;99.00
82231;DHT22;71832;45.138;9.816;2024-01-30T13:27:34;5.30;99.90
82231;DHT22;71832;45.138;9.816;2024-01-30T13:30:03;5.50;99.90
82231;DHT22;71832;45.138;9.816;2024-01-30T13:32:32;5.40;99.90
82231;DHT22;71832;45.138;9.816;2024-01-30T13:35:00;5.30;99.90
82231;DHT22;71832;45.138;9.816;2024-01-30T13:37:29;5.30;99.90
82231;DHT22;71832;45.138;9.816;2024-01-30T13:39:57;5.30;99.90
82231;DHT22;71832;45.138;9.816;2024-01-30T13:42:25;5.30;99.90
82231;DHT22;71832;45.138;9.816;2024-01-30T13:44:54;5.40;99.90
82231;DHT22;71832;45.138;9.816;2024-01-30T13:47:23;5.50;99.90
82231;DHT22;71832;45.138;9.816;2024-01-30T13:49:52;5.50;99.90
82231;DHT22;71832;45.138;9.816;2024-01-30T13:52:21;5.50;99.90
82231;DHT22;71832;45.138;9.816;2024-01-30T13:54:49;5.50;99.90
82231;DHT22;71832;45.138;9.816;2024-01-30T13:57:18;5.50;99.90
82231;DHT22;71832;45.138;9.816;2024-01-30T13:59:47;5.60;99.90
82231;DHT22;71832;45.138;9.816;2024-01-30T14:02:16;5.60;99.90
82231;DHT22;71832;45.138;9.816;2024-01-30T14:04:43;5.60;99.90
82231;DHT22;71832;45.138;9.816;2024-01-30T14:07:12;5.60;99.90
82231;DHT22;71832;45.138;9.816;2024-01-30T14:09:39;5.70;99.60
82231;DHT22;71832;45.138;9.816;2024-01-30T14:12:08;5.70;99.60
82231;DHT22;71832;45.138;9.816;2024-01-30T14:14:36;5.70;99.90
82231;DHT22;71832;45.138;9.816;2024-01-30T14:17:05;5.80;99.30
82231;DHT22;71832;45.138;9.816;2024-01-30T14:19:35;5.80;99.60
82231;DHT22;71832;45.138;9.816;2024-01-30T14:22:04;5.90;99.50
82231;DHT22;71832;45.138;9.816;2024-01-30T14:24:33;6.00;99.70
82231;DHT22;71832;45.138;9.816;2024-01-30T14:27:01;6.00;99.30
82231;DHT22;71832;45.138;9.816;2024-01-30T14:29:30;6.00;99.60
82231;DHT22;71832;45.138;9.816;2024-01-30T14:31:58;6.10;99.90
82231;DHT22;71832;45.138;9.816;2024-01-30T14:34:26;6.10;99.60
82231;DHT22;71832;45.138;9.816;2024-01-30T14:36:54;6.20;98.80
82231;DHT22;71832;45.138;9.816;2024-01-30T14:39:23;6.20;98.90
82231;DHT22;71832;45.138;9.816;2024-01-30T14:41:51;6.20;98.50
82231;DHT22;71832;45.138;9.816;2024-01-30T14:44:19;6.30;98.60
82231;DHT22;71832;45.138;9.816;2024-01-30T14:46:48;6.30;98.20
82231;DHT22;71832;45.138;9.816;2024-01-30T14:49:16;6.30;97.40
82231;DHT22;71832;45.138;9.816;2024-01-30T14:51:44;6.30;97.10
82231;DHT22;71832;45.138;9.816;2024-01-30T14:54:13;6.30;97.20
82231;DHT22;71832;45.138;9.816;2024-01-30T14:56:42;6.30;97.50
82231;DHT22;71832;45.138;9.816;2024-01-30T14:59:10;6.30;97.40
82231;DHT22;71832;45.138;9.816;2024-01-30T15:01:39;6.30;97.40
82231;DHT22;71832;45.138;9.816;2024-01-30T15:04:07;6.30;97.50
82231;DHT22;71832;45.138;9.816;2024-01-30T15:06:35;6.30;97.90
82231;DHT22;71832;45.138;9.816;2024-01-30T15:09:03;6.30;97.80
82231;DHT22;71832;45.138;9.816;2024-01-30T15:11:31;6.30;97.20
82231;DHT22;71832;45.138;9.816;2024-01-30T15:14:00;6.40;98.00
82231;DHT22;71832;45.138;9.816;2024-01-30T15:16:27;6.40;98.00
82231;DHT22;71832;45.138;9.816;2024-01-30T15:18:54;6.40;97.80
82231;DHT22;71832;45.138;9.816;2024-01-30T15:21:23;6.40;98.10
82231;DHT22;71832;45.138;9.816;2024-01-30T15:23:51;6.40;98.30
82231;DHT22;71832;45.138;9.816;2024-01-30T15:26:18;6.30;98.40
82231;DHT22;71832;45.138;9.816;2024-01-30T15:28:46;6.30;98.50
82231;DHT22;71832;45.138;9.816;2024-01-30T15:31:14;6.30;98.70
82231;DHT22;71832;45.138;9.816;2024-01-30T15:33:42;6.30;98.50
82231;DHT22;71832;45.138;9.816;2024-01-30T15:36:11;6.30;98.50
82231;DHT22;71832;45.138;9.816;2024-01-30T15:38:41;6.20;98.50
82231;DHT22;71832;45.138;9.816;2024-01-30T15:41:09;6.20;98.90
82231;DHT22;71832;45.138;9.816;2024-01-30T15:43:36;6.20;98.90
82231;DHT22;71832;45.138;9.816;2024-01-30T15:46:05;6.10;99.40
82231;DHT22;71832;45.138;9.816;2024-01-30T15:48:33;6.20;99.20
82231;DHT22;71832;45.138;9.816;2024-01-30T15:51:01;6.20;99.20
82231;DHT22;71832;45.138;9.816;2024-01-30T15:53:29;6.10;98.80
82231;DHT22;71832;45.138;9.816;2024-01-30T15:55:57;6.10;98.60